sensor_id;sensor_type;location;lat;lon;timestamp;P1;durP1;ratioP1;P2;durP2;ratioP2
44098;SDS011;29762;50.086;14.364;2023-02-28T00:00:53;2.67;;;1.73;;
44098;SDS011;29762;50.086;14.364;2023-02-28T00:06:13;2.88;;;1.67;;
44098;SDS011;29762;50.086;14.364;2023-02-28T00:11:32;3.20;;;1.77;;
44098;SDS011;29762;50.086;14.364;2023-02-28T00:16:51;3.67;;;1.63;;
44098;SDS011;29762;50.086;14.364;2023-02-28T00:22:11;2.35;;;1.52;;
44098;SDS011;29762;50.086;14.364;2023-02-28T00:27:30;3.33;;;1.80;;
44098;SDS011;29762;50.086;14.364;2023-02-28T00:32:50;2.45;;;1.50;;
44098;SDS011;29762;50.086;14.364;2023-02-28T00:38:10;3.42;;;1.40;;
44098;SDS011;29762;50.086;14.364;2023-02-28T00:43:29;3.58;;;1.70;;
44098;SDS011;29762;50.086;14.364;2023-02-28T00:48:50;3.08;;;1.55;;
44098;SDS011;29762;50.086;14.364;2023-02-28T00:54:09;3.53;;;1.45;;
44098;SDS011;29762;50.086;14.364;2023-02-28T00:59:29;2.22;;;1.40;;
44098;SDS011;29762;50.086;14.364;2023-02-28T01:04:48;2.17;;;1.38;;
44098;SDS011;29762;50.086;14.364;2023-02-28T01:10:08;2.65;;;1.20;;
44098;SDS011;29762;50.086;14.364;2023-02-28T01:15:28;3.30;;;1.48;;
44098;SDS011;29762;50.086;14.364;2023-02-28T01:20:48;2.63;;;1.48;;
44098;SDS011;29762;50.086;14.364;2023-02-28T01:26:14;2.53;;;1.50;;
44098;SDS011;29762;50.086;14.364;2023-02-28T01:31:38;3.55;;;1.60;;
44098;SDS011;29762;50.086;14.364;2023-02-28T01:36:58;2.00;;;1.23;;
44098;SDS011;29762;50.086;14.364;2023-02-28T01:42:18;2.88;;;1.30;;
44098;SDS011;29762;50.086;14.364;2023-02-28T01:47:39;1.95;;;1.35;;
44098;SDS011;29762;50.086;14.364;2023-02-28T01:53:00;3.63;;;1.73;;
44098;SDS011;29762;50.086;14.364;2023-02-28T01:58:24;1.80;;;1.20;;
44098;SDS011;29762;50.086;14.364;2023-02-28T02:03:43;1.50;;;1.40;;
44098;SDS011;29762;50.086;14.364;2023-02-28T02:09:05;3.22;;;1.45;;
44098;SDS011;29762;50.086;14.364;2023-02-28T02:14:31;1.98;;;1.25;;
44098;SDS011;29762;50.086;14.364;2023-02-28T02:31:32;2.20;;;1.33;;
44098;SDS011;29762;50.086;14.364;2023-02-28T02:37:04;1.63;;;1.33;;
44098;SDS011;29762;50.086;14.364;2023-02-28T02:42:39;1.77;;;1.30;;
44098;SDS011;29762;50.086;14.364;2023-02-28T02:48:05;1.60;;;1.17;;
44098;SDS011;29762;50.086;14.364;2023-02-28T02:53:32;2.80;;;1.40;;
44098;SDS011;29762;50.086;14.364;2023-02-28T02:58:55;1.50;;;1.13;;
44098;SDS011;29762;50.086;14.364;2023-02-28T03:04:18;1.48;;;1.27;;
44098;SDS011;29762;50.086;14.364;2023-02-28T03:09:40;1.70;;;1.10;;
44098;SDS011;29762;50.086;14.364;2023-02-28T03:20:44;2.72;;;1.40;;
44098;SDS011;29762;50.086;14.364;2023-02-28T03:26:12;1.15;;;1.05;;
44098;SDS011;29762;50.086;14.364;2023-02-28T03:31:43;1.55;;;1.13;;
44098;SDS011;29762;50.086;14.364;2023-02-28T03:37:07;1.95;;;1.30;;
44098;SDS011;29762;50.086;14.364;2023-02-28T03:42:29;2.65;;;1.45;;
44098;SDS011;29762;50.086;14.364;2023-02-28T03:53:31;1.90;;;1.38;;
44098;SDS011;29762;50.086;14.364;2023-02-28T03:58:55;1.20;;;1.10;;
44098;SDS011;29762;50.086;14.364;2023-02-28T04:04:17;1.67;;;1.17;;
44098;SDS011;29762;50.086;14.364;2023-02-28T04:09:37;1.60;;;1.42;;
44098;SDS011;29762;50.086;14.364;2023-02-28T04:14:57;1.67;;;1.30;;
44098;SDS011;29762;50.086;14.364;2023-02-28T04:20:16;1.25;;;1.10;;
44098;SDS011;29762;50.086;14.364;2023-02-28T04:25:36;1.50;;;1.40;;
44098;SDS011;29762;50.086;14.364;2023-02-28T04:30:56;1.40;;;1.25;;
44098;SDS011;29762;50.086;14.364;2023-02-28T04:36:16;2.30;;;1.30;;
44098;SDS011;29762;50.086;14.364;2023-02-28T04:41:36;1.40;;;1.20;;
44098;SDS011;29762;50.086;14.364;2023-02-28T04:46:56;1.23;;;0.90;;
44098;SDS011;29762;50.086;14.364;2023-02-28T04:52:16;1.50;;;1.17;;
44098;SDS011;29762;50.086;14.364;2023-02-28T04:57:36;1.70;;;1.00;;
44098;SDS011;29762;50.086;14.364;2023-02-28T05:02:56;1.40;;;1.13;;
44098;SDS011;29762;50.086;14.364;2023-02-28T05:08:15;1.95;;;1.25;;
44098;SDS011;29762;50.086;14.364;2023-02-28T05:13:35;1.85;;;1.40;;
44098;SDS011;29762;50.086;14.364;2023-02-28T05:18:54;1.50;;;1.23;;
44098;SDS011;29762;50.086;14.364;2023-02-28T05:24:14;1.60;;;1.30;;
44098;SDS011;29762;50.086;14.364;2023-02-28T05:29:33;1.40;;;1.20;;
44098;SDS011;29762;50.086;14.364;2023-02-28T05:34:53;1.90;;;1.08;;
44098;SDS011;29762;50.086;14.364;2023-02-28T05:40:13;1.50;;;1.10;;
44098;SDS011;29762;50.086;14.364;2023-02-28T05:45:32;2.17;;;1.00;;
44098;SDS011;29762;50.086;14.364;2023-02-28T05:50:52;1.52;;;1.20;;
44098;SDS011;29762;50.086;14.364;2023-02-28T05:56:11;1.30;;;1.20;;
44098;SDS011;29762;50.086;14.364;2023-02-28T06:01:35;2.22;;;1.20;;
44098;SDS011;29762;50.086;14.364;2023-02-28T06:06:59;1.40;;;1.10;;
44098;SDS011;29762;50.086;14.364;2023-02-28T06:12:18;1.50;;;1.40;;
44098;SDS011;29762;50.086;14.364;2023-02-28T06:17:39;1.65;;;1.33;;
44098;SDS011;29762;50.086;14.364;2023-02-28T06:22:59;1.60;;;1.20;;
44098;SDS011;29762;50.086;14.364;2023-02-28T06:28:18;2.53;;;1.50;;
44098;SDS011;29762;50.086;14.364;2023-02-28T06:33:38;1.30;;;1.20;;
44098;SDS011;29762;50.086;14.364;2023-02-28T06:38:58;2.58;;;1.30;;
44098;SDS011;29762;50.086;14.364;2023-02-28T06:44:18;2.28;;;1.70;;
44098;SDS011;29762;50.086;14.364;2023-02-28T06:49:37;3.53;;;1.63;;
44098;SDS011;29762;50.086;14.364;2023-02-28T06:54:58;2.90;;;1.70;;
44098;SDS011;29762;50.086;14.364;2023-02-28T07:00:20;1.95;;;1.40;;
44098;SDS011;29762;50.086;14.364;2023-02-28T07:05:40;2.97;;;1.60;;
44098;SDS011;29762;50.086;14.364;2023-02-28T07:11:00;2.20;;;1.67;;
44098;SDS011;29762;50.086;14.364;2023-02-28T07:16:19;3.13;;;1.55;;
44098;SDS011;29762;50.086;14.364;2023-02-28T07:21:39;3.67;;;1.67;;
44098;SDS011;29762;50.086;14.364;2023-02-28T07:26:58;1.80;;;1.50;;
44098;SDS011;29762;50.086;14.364;2023-02-28T07:32:19;2.47;;;1.52;;
44098;SDS011;29762;50.086;14.364;2023-02-28T07:37:38;1.90;;;1.55;;
44098;SDS011;29762;50.086;14.364;2023-02-28T07:42:58;3.15;;;1.50;;
44098;SDS011;29762;50.086;14.364;2023-02-28T07:48:19;2.05;;;1.50;;
44098;SDS011;29762;50.086;14.364;2023-02-28T07:53:38;3.28;;;1.58;;
44098;SDS011;29762;50.086;14.364;2023-02-28T07:58:58;2.60;;;1.20;;
44098;SDS011;29762;50.086;14.364;2023-02-28T08:04:18;1.73;;;1.48;;
44098;SDS011;29762;50.086;14.364;2023-02-28T08:09:37;1.80;;;1.40;;
44098;SDS011;29762;50.086;14.364;2023-02-28T08:14:57;1.55;;;1.30;;
44098;SDS011;29762;50.086;14.364;2023-02-28T08:20:16;1.50;;;1.40;;
44098;SDS011;29762;50.086;14.364;2023-02-28T08:25:35;1.58;;;1.30;;
44098;SDS011;29762;50.086;14.364;2023-02-28T08:30:55;2.13;;;1.40;;
44098;SDS011;29762;50.086;14.364;2023-02-28T08:36:14;1.55;;;1.30;;
44098;SDS011;29762;50.086;14.364;2023-02-28T08:41:34;1.85;;;1.20;;
44098;SDS011;29762;50.086;14.364;2023-02-28T08:46:53;1.30;;;1.20;;
44098;SDS011;29762;50.086;14.364;2023-02-28T08:52:13;2.50;;;1.00;;
44098;SDS011;29762;50.086;14.364;2023-02-28T08:57:32;1.30;;;1.20;;
44098;SDS011;29762;50.086;14.364;2023-02-28T09:02:52;1.33;;;1.02;;
44098;SDS011;29762;50.086;14.364;2023-02-28T09:08:12;2.38;;;1.10;;
44098;SDS011;29762;50.086;14.364;2023-02-28T09:13:31;2.38;;;1.30;;
44098;SDS011;29762;50.086;14.364;2023-02-28T09:18:51;1.65;;;1.35;;
44098;SDS011;29762;50.086;14.364;2023-02-28T09:24:11;1.83;;;1.30;;
44098;SDS011;29762;50.086;14.364;2023-02-28T09:29:33;1.70;;;1.23;;
44098;SDS011;29762;50.086;14.364;2023-02-28T09:34:53;1.45;;;1.35;;
44098;SDS011;29762;50.086;14.364;2023-02-28T09:40:13;2.60;;;1.38;;
44098;SDS011;29762;50.086;14.364;2023-02-28T09:45:35;1.52;;;1.38;;
44098;SDS011;29762;50.086;14.364;2023-02-28T09:51:00;2.78;;;1.20;;
44098;SDS011;29762;50.086;14.364;2023-02-28T10:02:23;3.35;;;1.45;;
44098;SDS011;29762;50.086;14.364;2023-02-28T10:08:02;2.40;;;1.80;;
44098;SDS011;29762;50.086;14.364;2023-02-28T10:18:52;2.40;;;1.75;;
44098;SDS011;29762;50.086;14.364;2023-02-28T10:24:32;1.80;;;1.70;;
44098;SDS011;29762;50.086;14.364;2023-02-28T10:29:55;4.00;;;2.03;;
44098;SDS011;29762;50.086;14.364;2023-02-28T10:35:17;2.60;;;1.60;;
44098;SDS011;29762;50.086;14.364;2023-02-28T10:40:38;2.00;;;1.80;;
44098;SDS011;29762;50.086;14.364;2023-02-28T10:45:59;2.10;;;1.65;;
44098;SDS011;29762;50.086;14.364;2023-02-28T10:51:21;1.95;;;1.70;;
44098;SDS011;29762;50.086;14.364;2023-02-28T10:56:41;2.20;;;1.80;;
44098;SDS011;29762;50.086;14.364;2023-02-28T11:02:01;2.22;;;1.50;;
44098;SDS011;29762;50.086;14.364;2023-02-28T11:07:21;2.25;;;1.70;;
44098;SDS011;29762;50.086;14.364;2023-02-28T11:12:41;1.67;;;1.52;;
44098;SDS011;29762;50.086;14.364;2023-02-28T11:18:05;2.13;;;1.90;;
44098;SDS011;29762;50.086;14.364;2023-02-28T11:23:48;2.90;;;1.63;;
44098;SDS011;29762;50.086;14.364;2023-02-28T11:29:28;1.75;;;1.50;;
44098;SDS011;29762;50.086;14.364;2023-02-28T11:35:36;2.00;;;1.42;;
44098;SDS011;29762;50.086;14.364;2023-02-28T11:51:58;1.27;;;1.15;;
44098;SDS011;29762;50.086;14.364;2023-02-28T12:13:53;3.72;;;2.80;;
44098;SDS011;29762;50.086;14.364;2023-02-28T12:31:55;8.05;;;3.40;;
44098;SDS011;29762;50.086;14.364;2023-02-28T12:36:49;10.43;;;4.25;;
44098;SDS011;29762;50.086;14.364;2023-02-28T12:42:13;12.02;;;4.43;;
44098;SDS011;29762;50.086;14.364;2023-02-28T12:47:39;13.65;;;4.57;;
44098;SDS011;29762;50.086;14.364;2023-02-28T12:53:04;16.70;;;4.68;;
44098;SDS011;29762;50.086;14.364;2023-02-28T13:09:54;7.85;;;3.90;;
44098;SDS011;29762;50.086;14.364;2023-02-28T13:15:17;8.57;;;3.83;;
44098;SDS011;29762;50.086;14.364;2023-02-28T13:20:46;6.07;;;3.42;;
44098;SDS011;29762;50.086;14.364;2023-02-28T13:26:07;6.88;;;3.17;;
44098;SDS011;29762;50.086;14.364;2023-02-28T13:31:27;6.65;;;3.42;;
44098;SDS011;29762;50.086;14.364;2023-02-28T13:36:47;6.85;;;3.45;;
44098;SDS011;29762;50.086;14.364;2023-02-28T13:47:42;7.55;;;5.88;;
44098;SDS011;29762;50.086;14.364;2023-02-28T14:09:31;4.45;;;4.00;;
44098;SDS011;29762;50.086;14.364;2023-02-28T14:14:54;4.55;;;3.75;;
44098;SDS011;29762;50.086;14.364;2023-02-28T14:20:15;5.38;;;4.10;;
44098;SDS011;29762;50.086;14.364;2023-02-28T14:31:53;5.03;;;3.60;;
44098;SDS011;29762;50.086;14.364;2023-02-28T14:37:19;5.43;;;3.85;;
44098;SDS011;29762;50.086;14.364;2023-02-28T14:42:46;3.85;;;3.30;;
44098;SDS011;29762;50.086;14.364;2023-02-28T14:48:08;3.92;;;3.30;;
44098;SDS011;29762;50.086;14.364;2023-02-28T14:53:29;4.10;;;3.20;;
44098;SDS011;29762;50.086;14.364;2023-02-28T14:58:55;4.03;;;3.50;;
44098;SDS011;29762;50.086;14.364;2023-02-28T15:04:26;4.35;;;3.15;;
44098;SDS011;29762;50.086;14.364;2023-02-28T15:09:47;4.07;;;3.17;;
44098;SDS011;29762;50.086;14.364;2023-02-28T15:15:06;3.83;;;3.13;;
44098;SDS011;29762;50.086;14.364;2023-02-28T15:20:34;3.23;;;2.90;;
44098;SDS011;29762;50.086;14.364;2023-02-28T15:26:03;4.22;;;3.38;;
44098;SDS011;29762;50.086;14.364;2023-02-28T15:31:26;3.33;;;3.03;;
44098;SDS011;29762;50.086;14.364;2023-02-28T15:36:48;4.32;;;2.88;;
44098;SDS011;29762;50.086;14.364;2023-02-28T15:42:11;3.22;;;2.92;;
44098;SDS011;29762;50.086;14.364;2023-02-28T15:47:32;6.72;;;5.40;;
44098;SDS011;29762;50.086;14.364;2023-02-28T15:52:51;5.22;;;3.55;;
44098;SDS011;29762;50.086;14.364;2023-02-28T15:58:11;3.60;;;3.20;;
44098;SDS011;29762;50.086;14.364;2023-02-28T16:03:35;5.72;;;3.35;;
44098;SDS011;29762;50.086;14.364;2023-02-28T16:08:59;3.70;;;3.17;;
44098;SDS011;29762;50.086;14.364;2023-02-28T16:14:20;5.00;;;3.13;;
44098;SDS011;29762;50.086;14.364;2023-02-28T16:19:44;3.55;;;3.20;;
44098;SDS011;29762;50.086;14.364;2023-02-28T16:25:03;3.30;;;3.00;;
44098;SDS011;29762;50.086;14.364;2023-02-28T16:30:28;3.85;;;3.20;;
44098;SDS011;29762;50.086;14.364;2023-02-28T16:35:51;3.85;;;3.10;;
44098;SDS011;29762;50.086;14.364;2023-02-28T16:41:12;3.70;;;2.97;;
44098;SDS011;29762;50.086;14.364;2023-02-28T16:46:37;5.38;;;3.35;;
44098;SDS011;29762;50.086;14.364;2023-02-28T16:51:56;4.43;;;3.00;;
44098;SDS011;29762;50.086;14.364;2023-02-28T16:57:22;3.20;;;2.90;;
44098;SDS011;29762;50.086;14.364;2023-02-28T17:02:42;3.03;;;2.70;;
44098;SDS011;29762;50.086;14.364;2023-02-28T17:08:01;3.38;;;3.08;;
44098;SDS011;29762;50.086;14.364;2023-02-28T17:13:21;3.10;;;2.70;;
44098;SDS011;29762;50.086;14.364;2023-02-28T17:18:40;4.75;;;3.08;;
44098;SDS011;29762;50.086;14.364;2023-02-28T17:23:59;3.08;;;2.78;;
44098;SDS011;29762;50.086;14.364;2023-02-28T17:29:20;3.67;;;2.90;;
44098;SDS011;29762;50.086;14.364;2023-02-28T17:34:40;4.10;;;2.78;;
44098;SDS011;29762;50.086;14.364;2023-02-28T17:40:00;2.75;;;2.42;;
44098;SDS011;29762;50.086;14.364;2023-02-28T17:45:21;2.53;;;2.30;;
44098;SDS011;29762;50.086;14.364;2023-02-28T17:50:40;3.75;;;2.97;;
44098;SDS011;29762;50.086;14.364;2023-02-28T17:56:00;2.85;;;2.55;;
44098;SDS011;29762;50.086;14.364;2023-02-28T18:01:19;5.97;;;2.40;;
44098;SDS011;29762;50.086;14.364;2023-02-28T18:06:40;3.95;;;2.40;;
44098;SDS011;29762;50.086;14.364;2023-02-28T18:12:08;3.63;;;2.47;;
44098;SDS011;29762;50.086;14.364;2023-02-28T18:17:28;2.97;;;2.33;;
44098;SDS011;29762;50.086;14.364;2023-02-28T18:22:47;3.72;;;2.50;;
44098;SDS011;29762;50.086;14.364;2023-02-28T18:28:06;2.63;;;2.25;;
44098;SDS011;29762;50.086;14.364;2023-02-28T18:33:26;3.97;;;2.55;;
44098;SDS011;29762;50.086;14.364;2023-02-28T18:38:46;3.83;;;2.60;;
44098;SDS011;29762;50.086;14.364;2023-02-28T18:44:06;3.45;;;2.45;;
44098;SDS011;29762;50.086;14.364;2023-02-28T18:49:26;3.08;;;2.30;;
44098;SDS011;29762;50.086;14.364;2023-02-28T18:54:46;3.92;;;2.53;;
44098;SDS011;29762;50.086;14.364;2023-02-28T19:00:06;5.03;;;2.45;;
44098;SDS011;29762;50.086;14.364;2023-02-28T19:05:26;4.38;;;2.72;;
44098;SDS011;29762;50.086;14.364;2023-02-28T19:10:48;4.45;;;2.42;;
44098;SDS011;29762;50.086;14.364;2023-02-28T19:16:13;3.15;;;2.42;;
44098;SDS011;29762;50.086;14.364;2023-02-28T19:21:33;2.80;;;2.20;;
44098;SDS011;29762;50.086;14.364;2023-02-28T19:26:54;4.90;;;2.63;;
44098;SDS011;29762;50.086;14.364;2023-02-28T19:32:14;4.70;;;2.20;;
44098;SDS011;29762;50.086;14.364;2023-02-28T19:37:40;4.85;;;3.03;;
44098;SDS011;29762;50.086;14.364;2023-02-28T19:43:00;3.53;;;2.53;;
44098;SDS011;29762;50.086;14.364;2023-02-28T19:48:20;3.42;;;2.40;;
44098;SDS011;29762;50.086;14.364;2023-02-28T19:53:43;4.40;;;2.70;;
44098;SDS011;29762;50.086;14.364;2023-02-28T19:59:02;5.40;;;3.00;;
44098;SDS011;29762;50.086;14.364;2023-02-28T20:04:22;4.75;;;2.78;;
44098;SDS011;29762;50.086;14.364;2023-02-28T20:09:42;4.13;;;2.78;;
44098;SDS011;29762;50.086;14.364;2023-02-28T20:15:03;4.88;;;2.53;;
44098;SDS011;29762;50.086;14.364;2023-02-28T20:20:23;4.10;;;2.83;;
44098;SDS011;29762;50.086;14.364;2023-02-28T20:25:43;3.90;;;2.35;;
44098;SDS011;29762;50.086;14.364;2023-02-28T20:31:08;4.47;;;2.40;;
44098;SDS011;29762;50.086;14.364;2023-02-28T20:36:29;4.03;;;2.85;;
44098;SDS011;29762;50.086;14.364;2023-02-28T20:41:48;4.30;;;2.60;;
44098;SDS011;29762;50.086;14.364;2023-02-28T20:47:08;3.72;;;2.60;;
44098;SDS011;29762;50.086;14.364;2023-02-28T20:52:28;3.42;;;2.50;;
44098;SDS011;29762;50.086;14.364;2023-02-28T20:57:47;3.60;;;2.55;;
44098;SDS011;29762;50.086;14.364;2023-02-28T21:03:08;3.33;;;2.75;;
44098;SDS011;29762;50.086;14.364;2023-02-28T21:08:27;4.25;;;2.90;;
44098;SDS011;29762;50.086;14.364;2023-02-28T21:13:47;3.95;;;2.88;;
44098;SDS011;29762;50.086;14.364;2023-02-28T21:19:09;3.83;;;2.60;;
44098;SDS011;29762;50.086;14.364;2023-02-28T21:24:30;4.25;;;2.95;;
44098;SDS011;29762;50.086;14.364;2023-02-28T21:29:49;4.05;;;2.88;;
44098;SDS011;29762;50.086;14.364;2023-02-28T21:35:09;6.20;;;2.92;;
44098;SDS011;29762;50.086;14.364;2023-02-28T21:40:28;5.00;;;3.00;;
44098;SDS011;29762;50.086;14.364;2023-02-28T21:45:47;4.53;;;2.88;;
44098;SDS011;29762;50.086;14.364;2023-02-28T21:51:09;4.70;;;3.03;;
44098;SDS011;29762;50.086;14.364;2023-02-28T21:56:31;4.25;;;3.40;;
44098;SDS011;29762;50.086;14.364;2023-02-28T22:01:52;4.43;;;3.30;;
44098;SDS011;29762;50.086;14.364;2023-02-28T22:07:13;3.72;;;2.83;;
44098;SDS011;29762;50.086;14.364;2023-02-28T22:12:33;3.97;;;2.85;;
44098;SDS011;29762;50.086;14.364;2023-02-28T22:17:53;5.32;;;2.95;;
44098;SDS011;29762;50.086;14.364;2023-02-28T22:23:12;5.57;;;2.92;;
44098;SDS011;29762;50.086;14.364;2023-02-28T22:28:31;5.28;;;2.85;;
44098;SDS011;29762;50.086;14.364;2023-02-28T22:33:52;4.15;;;2.70;;
44098;SDS011;29762;50.086;14.364;2023-02-28T22:39:13;4.20;;;2.75;;
44098;SDS011;29762;50.086;14.364;2023-02-28T22:44:32;3.15;;;2.67;;
44098;SDS011;29762;50.086;14.364;2023-02-28T22:49:52;3.60;;;2.67;;
44098;SDS011;29762;50.086;14.364;2023-02-28T22:55:11;3.75;;;2.72;;
44098;SDS011;29762;50.086;14.364;2023-02-28T23:00:31;3.72;;;2.65;;
44098;SDS011;29762;50.086;14.364;2023-02-28T23:05:51;4.65;;;2.80;;
44098;SDS011;29762;50.086;14.364;2023-02-28T23:11:15;2.67;;;2.20;;
44098;SDS011;29762;50.086;14.364;2023-02-28T23:16:41;3.70;;;2.63;;
44098;SDS011;29762;50.086;14.364;2023-02-28T23:22:02;4.97;;;2.80;;
44098;SDS011;29762;50.086;14.364;2023-02-28T23:27:24;3.33;;;2.55;;
44098;SDS011;29762;50.086;14.364;2023-02-28T23:32:43;3.33;;;2.58;;
44098;SDS011;29762;50.086;14.364;2023-02-28T23:38:02;4.63;;;2.70;;
44098;SDS011;29762;50.086;14.364;2023-02-28T23:43:23;3.53;;;2.40;;
44098;SDS011;29762;50.086;14.364;2023-02-28T23:48:43;3.25;;;2.47;;
44098;SDS011;29762;50.086;14.364;2023-02-28T23:54:03;3.45;;;2.50;;
44098;SDS011;29762;50.086;14.364;2023-02-28T23:59:23;3.50;;;2.50;;
